首页
METAR-TAF:

METAR-TAF

机场 :

阿卜杜勒-阿齐兹国王国际机场

吉达, 沙特阿拉伯

纬度: 21-42N, 经度: 039-11E, 海拔: 15米

当前天气观测

该预报发布于37分钟前的17:00 UTC
风速10节,风向
温度 20°C
湿度 46%
气压 1020 hPa
能见度10公里或以上
1500米以下无云,无积雨云

METAR: OEJN 241700Z 35010KT CAVOK 20/08 Q1020 NOSIG

时间: 20:37 (17:37 UTC)

预报

该预报发布于6小时和37分钟前的11:00 UTC
预报有效从24日的 12点(UTC)到 25日的 18点(UTC)
风速15节,风向北转西北
能見度: 7000
成为
从 24日的 17点(UTC)到 24日的 19点(UTC)
风速10节,风向北转东北
能见度10公里或以上
少量云层高于4000英尺

TAF: OEJN 241100Z 2412/2518 33015KT 7000 NSC BECMG 2417/2419 02010KT 9999 FEW040

超过4000个机场的气象观测和天气预报(METAR&TAF报告)。

可查询的气象台以黄色和红色小点在地图上表示。

将鼠标移到小点上方,可查看气象台名称。

然后点击查看天气观测和预报。

如需切换地图:点击带黑十字的绿色按钮放大地图;点击带横线的绿色按钮缩小地图;或者点击绿色箭头查看邻近地区的地图。


METAR-TAF: